• Join FlightAware (Why Join?)
  • Login
  • US Flag 
11:06PM EDT


 

Airport Tracker/Info


-or-


 

Live Flight TrackerFlight Track Log ✈ UAL4530 ✈ 22-Jul-2013 ✈ KOMA - KIAH

Flight Track Log - Related Links

Times and Time Zones

All times are in EDT time to prevent confusion due to time zone crossing. See the UAL4530 flight status page for this flight to view local times or setup timezone preferences in your user account.

Time Position Orientation Groundspeed Altitude Reporting Facility
EDT Latitude Longitude Course Direction KTS MPH feet Rate Location/Type
12:45PM 41.2947 -95.8892 207° Southwest 161 185 1,400  Level Minneapolis Center
12:46PM 41.2294 -95.8800 174° South 201 231 4,000 1,740 Climbing Minneapolis Center
12:47PM 41.2000 -95.8792 179° South 196 226 4,600 1,140 Climbing Minneapolis Center
12:47PM 41.1522 -95.8833 184° South 261 300 5,300 1,020 Climbing Minneapolis Center
12:48PM 41.1261 -95.8836 180° South 244 281 5,900 1,800 Climbing Minneapolis Center
12:49PM 40.9598 -95.8379 207° Southwest  Level FlightAware Approximate
12:49PM 41.0339 -95.9028 189° South 277 319 8,300  Level Minneapolis Center
12:50PM 40.8710 -95.8971 207° Southwest  Level FlightAware Approximate
12:50PM 40.9597 -95.9425 202° Southwest 284 327 10,400  Level Minneapolis Center
12:51PM 40.8631 -95.9947 202° Southwest 304 350 11,200 780 Climbing Minneapolis Center
12:52PM 40.7700 -96.0439 202° Southwest 343 395 12,200 1,200 Climbing Minneapolis Center
12:53PM 40.6594 -96.1039 202° Southwest 356 410 13,800 1,260 Climbing Minneapolis Center
12:54PM 40.5647 -96.1519 201° Southwest 361 415 14,900 1,020 Climbing Minneapolis Center
12:55PM 40.4692 -96.2039 202° Southwest 367 422 16,000 960 Climbing Minneapolis Center
12:56PM 40.3706 -96.2558 202° Southwest 375 432 17,000 1,260 Climbing Minneapolis Center
12:57PM 40.2725 -96.3067 202° Southwest 380 437 18,700 1,200 Climbing Minneapolis Center
12:58PM 40.1753 -96.3567 201° Southwest 376 433 19,600 960 Climbing Minneapolis Center
12:59PM 40.0578 -96.4192 202° Southwest 378 435 20,800 960 Climbing Minneapolis Center
01:01PM 39.9297 -96.4447 189° South 387 445 21,800 660 Climbing Minneapolis Center
01:02PM 39.8189 -96.4603 186° South 396 456 22,500 480 Climbing Minneapolis Center
01:03PM 39.6822 -96.4778 186° South 407 468 23,000 480 Climbing Minneapolis Center
01:04PM 39.5653 -96.4944 186° South 418 481 23,500 480 Climbing Minneapolis Center
01:05PM 39.4453 -96.5106 186° South 428 493 24,000 720 Climbing Minneapolis Center
01:06PM 39.3033 -96.5303 186° South 427 491 25,000 1,200 Climbing Minneapolis Center
01:07PM 39.1861 -96.5453 186° South 425 489 26,500 1,620 Climbing Minneapolis Center
01:08PM 39.0778 -96.5594 186° South 404 465 28,400 1,380 Climbing Minneapolis Center
01:09PM 38.9339 -96.5811 187° South 381 438 29,800 900 Climbing Kansas City Center
01:10PM 38.8242 -96.5906 184° South 387 445 30,500 1,140 Climbing Kansas City Center
01:11PM 38.7014 -96.5897 180° South 400 460 32,200 1,440 Climbing Kansas City Center
01:13PM 38.5994 -96.5894 180° South 387 445 33,500 1,140 Climbing Kansas City Center
01:14PM 38.4800 -96.5872 179° South 387 445 34,600 780 Climbing Kansas City Center
01:15PM 38.3875 -96.5850 179° South 389 448 35,200 660 Climbing Kansas City Center
01:16PM 38.2772 -96.5819 179° South 393 452 36,000 360 Climbing Kansas City Center
01:17PM 38.1378 -96.5831 180° South 416 479 36,000  Level Kansas City Center
01:18PM 38.0167 -96.6019 187° South 436 502 36,000  Level Kansas City Center
01:19PM 37.8897 -96.6222 187° South 454 522 36,000  Level Kansas City Center
01:20PM 37.7628 -96.6411 187° South 456 525 36,000  Level Kansas City Center
01:21PM 37.6392 -96.6597 187° South 446 513 36,000  Level Kansas City Center
01:22PM 37.5142 -96.6794 187° South 448 516 36,000  Level Kansas City Center
01:23PM 37.3875 -96.6986 187° South 453 521 36,000  Level Kansas City Center
01:24PM 37.2319 -96.7217 187° South 462 532 36,000  Level Kansas City Center
01:25PM 37.1156 -96.7411 188° South 466 536 36,000  Level Kansas City Center
01:26PM 36.9589 -96.7653 187° South 471 542 36,000  Level Kansas City Center
01:27PM 36.8317 -96.7839 187° South 467 537 36,000  Level Kansas City Center
01:28PM 36.7069 -96.8033 187° South 461 531 36,000  Level Kansas City Center
01:29PM 36.5825 -96.8214 187° South 456 525 36,000  Level Kansas City Center
01:30PM 36.4581 -96.8392 187° South 453 521 36,000  Level Kansas City Center
01:31PM 36.3333 -96.8581 187° South 452 520 36,000  Level Kansas City Center
01:32PM 36.1808 -96.8811 187° South 455 524 36,000  Level Kansas City Center
01:33PM 36.0531 -96.9011 187° South 460 529 36,000  Level Kansas City Center
01:34PM 35.9228 -96.9194 187° South 467 537 36,000  Level Kansas City Center
01:35PM 35.7928 -96.9389 187° South 469 540 36,000  Level Kansas City Center
01:36PM 35.6617 -96.9578 187° South 470 541 36,000  Level Kansas City Center
01:37PM 35.5286 -96.9764 186° South 476 548 36,000  Level Kansas City Center
01:38PM 35.3956 -96.9958 187° South 477 549 36,000  Level Kansas City Center
01:39PM 35.2611 -97.0144 186° South 478 550 36,000  Level Kansas City Center
01:40PM 35.1025 -97.0392 187° South 475 547 36,000  Level Kansas City Center
01:41PM 34.9706 -97.0606 188° South 475 547 36,000  Level Kansas City Center
01:43PM 34.8400 -97.0797 187° South 473 544 36,000  Level Kansas City Center
01:45PM 34.5528 -97.1211 187° South 480 552 36,000 -60 Level Fort Worth Center
01:46PM 34.4233 -97.1214 180° South 474 545 35,900 -300 Descending Fort Worth Center
01:47PM 34.2919 -97.1017 173° South 474 545 35,400 -480 Descending Fort Worth Center
01:48PM 34.1583 -97.0847 174° South 479 551 35,000 -240 Descending Fort Worth Center
01:49PM 34.0225 -97.0603 172° South 467 537 35,000  Level Fort Worth Center
01:50PM 33.8953 -97.0431 174° South 467 537 35,000  Level Fort Worth Center
01:51PM 33.7678 -97.0261 174° South 467 537 35,000  Level Fort Worth Center
01:52PM 33.6383 -97.0067 173° South 467 537 35,000  Level Fort Worth Center
01:53PM 33.5089 -96.9875 173° South 467 537 35,000  Level Fort Worth Center
01:54PM 33.3983 -96.9731 174° South 462 532 35,000  Level Fort Worth Center
01:55PM 33.2689 -96.9564 174° South 462 532 35,000  Level Fort Worth Center
01:56PM 33.1414 -96.9372 173° South 462 532 35,000  Level Fort Worth Center
01:57PM 33.0142 -96.9228 175° South 462 532 35,000  Level Fort Worth Center
01:58PM 32.8700 -96.8989 172° South 462 532 35,000  Level Fort Worth Center
01:59PM 32.7569 -96.8650 166° South 469 540 35,000  Level Fort Worth Center
02:00PM 32.6317 -96.8311 167° South 469 540 35,000  Level Fort Worth Center
02:01PM 32.5083 -96.7950 166° South 469 540 35,000  Level Fort Worth Center
02:02PM 32.3828 -96.7592 166° South 463 533 35,000  Level Fort Worth Center
02:03PM 32.2594 -96.7108 162° South 463 533 35,000 -180 Level Fort Worth Center
02:04PM 32.1381 -96.6650 162° South 463 533 34,700 -600 Descending Fort Worth Center
02:05PM 32.0186 -96.6122 159° South 463 533 33,800 -960 Descending Fort Worth Center
02:06PM 31.9014 -96.5642 161° South 463 533 32,800 -1,020 Descending Fort Worth Center
02:07PM 31.7400 -96.4981 161° South 452 520 31,500 -840 Descending Houston Center
02:08PM 31.6181 -96.4497 161° South 456 525 31,000 -300 Descending Houston Center
02:09PM 31.4958 -96.4000 161° South 459 528 31,000  Level Houston Center
02:10PM 31.3733 -96.3500 161° South 458 527 31,000 -180 Level Houston Center
02:11PM 31.2486 -96.2989 161° South 465 535 30,700 -1,680 Descending Houston Center
02:12PM 31.1292 -96.2381 156° South 461 531 27,600 -3,240 Descending Houston Center
02:13PM 31.0172 -96.1750 154° Southeast 444 511 24,100 -3,060 Descending Houston Center
02:14PM 30.9047 -96.1117 154° Southeast 444 511 21,300 -2,520 Descending Houston Center
02:15PM 30.7933 -96.0497 154° Southeast 414 476 18,900 -2,280 Descending Houston Center
02:16PM 30.7197 -96.0092 155° Southeast 413 475 17,500 -2,280 Descending Houston Center
02:17PM 30.6536 -95.9731 155° Southeast 411 473 16,100 -2,100 Descending Houston Center
02:17PM 30.5944 -95.9397 154° Southeast 400 460 14,600 -2,220 Descending Houston Center
02:18PM 30.4881 -95.8808 154° Southeast 352 405 12,100 -1,440 Descending Houston Center
02:19PM 30.4156 -95.8208 144° Southeast 329 379 11,700 -660 Descending Houston Center
02:20PM 30.3406 -95.7450 139° Southeast 353 406 10,800 -720 Descending Houston Center
02:21PM 30.2703 -95.6714 138° Southeast 347 399 10,300 -1,020 Descending Houston Center
02:22PM 30.2131 -95.6128 138° Southeast 287 330 8,800 -1,500 Descending Houston Center
02:24PM 30.1389 -95.5372 139° Southeast 265 305 7,000 -900 Descending Houston Center
02:25PM 30.1086 -95.4911 127° Southeast 275 316 7,000  Level Houston Center
02:26PM 30.1069 -95.3803 91° East 287 330 7,000 -120 Level Houston Center
02:27PM 30.1072 -95.2925 90° East 280 322 6,800 -1,200 Descending Houston Center
02:28PM 30.1044 -95.2056 92° East 240 276 4,500 -1,800 Descending Houston Center
02:29PM 30.0606 -95.1792 153° Southeast 245 282 3,100 -1,200 Descending Houston Center
02:30PM 30.0133 -95.2192 216° Southwest 149 171 2,100 -960 Descending Houston Center